createdAt,value
2019-05-05T00:00:00.466Z,101292.95
2019-05-05T00:01:24.987Z,101295.61
2019-05-05T00:02:48.177Z,101298.36
2019-05-05T00:04:11.511Z,101299.83
2019-05-05T00:05:41.223Z,101300.97
2019-05-05T00:06:46.852Z,101303.12
2019-05-05T00:07:51.562Z,101298.18
2019-05-05T00:08:56.605Z,101297.80
2019-05-05T00:10:01.617Z,101300.89
2019-05-05T00:11:24.505Z,101301.23
2019-05-05T00:12:55.069Z,101299.05
2019-05-05T00:14:09.199Z,101295.33
2019-05-05T00:15:36.883Z,101303.64
2019-05-05T00:16:46.459Z,101307.54
2019-05-05T00:17:51.384Z,101303.73
2019-05-05T00:18:56.468Z,101300.96
2019-05-05T00:20:01.151Z,101300.12
2019-05-05T00:21:05.911Z,101307.94
2019-05-05T00:22:11.210Z,101303.52
2019-05-05T00:23:17.561Z,101302.71
2019-05-05T00:24:24.399Z,101302.59
2019-05-05T00:25:29.742Z,101302.38
2019-05-05T00:26:35.181Z,101303.14
2019-05-05T00:27:40.164Z,101305.13
2019-05-05T00:28:44.912Z,101305.42
2019-05-05T00:29:49.874Z,101308.67
2019-05-05T00:30:55.461Z,101304.77
2019-05-05T00:32:01.150Z,101302.92
2019-05-05T00:33:05.952Z,101306.91
2019-05-05T00:34:10.636Z,101308.05
2019-05-05T00:35:15.315Z,101312.94
2019-05-05T00:36:20.369Z,101314.27
2019-05-05T00:37:25.786Z,101316.64
2019-05-05T00:38:30.798Z,101315.50
2019-05-05T00:39:35.814Z,101314.60
2019-05-05T00:40:40.770Z,101315.25
2019-05-05T00:41:46.279Z,101311.49
2019-05-05T00:42:50.983Z,101312.98
2019-05-05T00:43:56.288Z,101317.44
2019-05-05T00:45:01.279Z,101324.44
2019-05-05T00:46:12.089Z,101324.81
2019-05-05T00:47:54.556Z,101323.06
2019-05-05T00:48:59.547Z,101328.63
2019-05-05T00:50:05.284Z,101322.03
2019-05-05T00:51:10.636Z,101331.76
2019-05-05T00:52:16.712Z,101323.97
2019-05-05T00:53:21.694Z,101329.34
2019-05-05T00:54:27.215Z,101329.61
2019-05-05T00:55:32.254Z,101325.64
2019-05-05T00:56:37.769Z,101337.21
2019-05-05T00:57:42.604Z,101328.36
2019-05-05T00:58:55.145Z,101330.58
2019-05-05T00:59:59.903Z,101336.56
2019-05-05T01:01:16.112Z,101330.77
2019-05-05T01:02:36.145Z,101331.85
2019-05-05T01:03:41.102Z,101330.16
2019-05-05T01:05:01.606Z,101332.20
2019-05-05T01:06:12.088Z,101329.94
2019-05-05T01:07:17.075Z,101336.92
2019-05-05T01:08:25.037Z,101335.86
2019-05-05T01:09:30.648Z,101333.08
2019-05-05T01:10:36.082Z,101330.45
2019-05-05T01:11:41.053Z,101334.41
2019-05-05T01:12:46.020Z,101332.95
2019-05-05T01:13:51.545Z,101335.89
2019-05-05T01:14:56.266Z,101334.91
2019-05-05T01:16:01.562Z,101337.41
2019-05-05T01:17:06.694Z,101334.03
2019-05-05T01:18:11.679Z,101336.84
2019-05-05T01:19:16.935Z,101338.07
2019-05-05T01:20:22.479Z,101341.17
2019-05-05T01:21:27.546Z,101339.08
2019-05-05T01:22:34.089Z,101340.25
2019-05-05T01:23:39.168Z,101339.80
2019-05-05T01:24:45.839Z,101343.43
2019-05-05T01:25:51.184Z,101337.70
2019-05-05T01:26:56.447Z,101340.97
2019-05-05T01:28:01.414Z,101335.48
2019-05-05T01:29:08.060Z,101343.86
2019-05-05T01:30:17.004Z,101338.16
2019-05-05T01:31:22.176Z,101337.98
2019-05-05T01:32:31.205Z,101344.23
2019-05-05T01:33:50.326Z,101338.26
2019-05-05T01:34:55.100Z,101343.30
2019-05-05T01:36:00.077Z,101335.67
2019-05-05T01:37:10.559Z,101341.98
2019-05-05T01:38:21.689Z,101339.61
2019-05-05T01:39:36.008Z,101342.77
2019-05-05T01:40:50.846Z,101350.97
2019-05-05T01:41:58.112Z,101339.31
2019-05-05T01:43:05.198Z,101340.24
2019-05-05T01:44:10.072Z,101342.00
2019-05-05T01:45:15.045Z,101350.11
2019-05-05T01:46:19.996Z,101337.13
2019-05-05T01:47:25.528Z,101339.81
2019-05-05T01:48:30.553Z,101338.13
2019-05-05T01:49:36.129Z,101339.45
2019-05-05T01:50:41.381Z,101346.70
2019-05-05T01:51:46.081Z,101345.08
2019-05-05T01:52:50.522Z,101339.45
2019-05-05T01:53:55.285Z,101346.26
2019-05-05T01:55:00.281Z,101343.98
2019-05-05T01:56:05.078Z,101344.53
2019-05-05T01:57:09.616Z,101348.62
2019-05-05T01:58:15.275Z,101348.74
2019-05-05T01:59:20.361Z,101352.05
2019-05-05T02:00:25.479Z,101350.61
2019-05-05T02:01:30.687Z,101351.48
2019-05-05T02:02:35.674Z,101354.83
2019-05-05T02:03:40.466Z,101354.72
2019-05-05T02:04:45.715Z,101352.17
2019-05-05T02:05:50.481Z,101357.56
2019-05-05T02:06:55.213Z,101357.50
2019-05-05T02:07:59.868Z,101357.51
2019-05-05T02:09:06.640Z,101350.32
2019-05-05T02:10:12.610Z,101351.61
2019-05-05T02:11:17.559Z,101351.54
2019-05-05T02:12:24.665Z,101356.70
2019-05-05T02:13:29.574Z,101358.47
2019-05-05T02:14:35.233Z,101357.48
2019-05-05T02:15:40.365Z,101351.66
2019-05-05T02:16:45.340Z,101354.63
2019-05-05T02:17:50.576Z,101358.17
2019-05-05T02:18:55.346Z,101358.42
2019-05-05T02:19:59.823Z,101357.14
2019-05-05T02:21:06.458Z,101358.37
2019-05-05T02:22:11.418Z,101355.75
2019-05-05T02:23:17.452Z,101361.89
2019-05-05T02:24:22.505Z,101358.57
2019-05-05T02:25:28.150Z,101360.23
2019-05-05T02:26:35.052Z,101356.25
2019-05-05T02:27:40.367Z,101357.12
2019-05-05T02:28:55.930Z,101367.81
2019-05-05T02:30:19.793Z,101369.55
2019-05-05T02:31:36.214Z,101364.28
2019-05-05T02:32:45.343Z,101366.55
2019-05-05T02:33:50.399Z,101367.80
2019-05-05T02:34:57.346Z,101366.13
2019-05-05T02:36:02.012Z,101368.11
2019-05-05T02:37:07.061Z,101367.16
2019-05-05T02:38:12.053Z,101361.52
2019-05-05T02:39:16.484Z,101362.02
2019-05-05T02:40:24.375Z,101362.84
2019-05-05T02:41:28.449Z,101366.02
2019-05-05T02:42:35.443Z,101365.68
2019-05-05T02:43:40.951Z,101362.16
2019-05-05T02:44:46.098Z,101361.78
2019-05-05T02:46:14.372Z,101365.27
2019-05-05T02:47:28.330Z,101367.09
2019-05-05T02:48:35.502Z,101364.70
2019-05-05T02:49:45.207Z,101363.57
2019-05-05T02:51:02.459Z,101362.91
2019-05-05T02:52:06.972Z,101365.39
2019-05-05T02:53:11.705Z,101368.73
2019-05-05T02:54:17.705Z,101367.23
2019-05-05T02:55:23.820Z,101365.44
2019-05-05T02:56:35.229Z,101368.48
2019-05-05T02:57:40.184Z,101371.67
2019-05-05T02:58:46.006Z,101370.75
2019-05-05T02:59:59.217Z,101369.84
2019-05-05T03:01:34.115Z,101371.29
2019-05-05T03:02:39.803Z,101371.09
2019-05-05T03:03:44.271Z,101363.85
2019-05-05T03:04:49.239Z,101370.16
2019-05-05T03:05:55.226Z,101370.84
2019-05-05T03:07:04.576Z,101369.61
2019-05-05T03:08:09.777Z,101369.11
2019-05-05T03:09:16.071Z,101369.16
2019-05-05T03:10:21.241Z,101368.73
2019-05-05T03:11:28.364Z,101367.50
2019-05-05T03:12:36.510Z,101371.96
2019-05-05T03:13:44.231Z,101372.38
2019-05-05T03:14:53.685Z,101368.84
2019-05-05T03:16:14.221Z,101370.27
2019-05-05T03:17:19.678Z,101371.02
2019-05-05T03:18:25.363Z,101373.64
2019-05-05T03:19:30.688Z,101373.30
2019-05-05T03:20:35.220Z,101379.31
2019-05-05T03:21:40.872Z,101380.33
2019-05-05T03:22:46.146Z,101378.83
2019-05-05T03:23:50.739Z,101381.21
2019-05-05T03:24:55.513Z,101377.78
2019-05-05T03:26:00.540Z,101381.89
2019-05-05T03:27:05.968Z,101377.31
2019-05-05T03:28:13.455Z,101380.20
2019-05-05T03:29:20.575Z,101378.91
2019-05-05T03:30:26.273Z,101379.04
2019-05-05T03:31:32.289Z,101381.94
2019-05-05T03:32:38.486Z,101377.60
2019-05-05T03:33:45.917Z,101378.39
2019-05-05T03:34:50.775Z,101377.36
2019-05-05T03:35:55.546Z,101375.42
2019-05-05T03:37:01.416Z,101377.69
2019-05-05T03:38:06.125Z,101376.87
2019-05-05T03:39:14.415Z,101378.08
2019-05-05T03:40:24.397Z,101377.03
2019-05-05T03:42:03.808Z,101381.77
2019-05-05T03:43:18.361Z,101389.26
2019-05-05T03:44:29.122Z,101387.53
2019-05-05T03:45:55.160Z,101385.34
2019-05-05T03:47:00.278Z,101386.47
2019-05-05T03:48:04.817Z,101391.15
2019-05-05T03:49:10.043Z,101391.91
2019-05-05T03:50:15.440Z,101391.32
2019-05-05T03:51:21.176Z,101393.05
2019-05-05T03:52:26.784Z,101395.72
2019-05-05T03:53:33.753Z,101399.50
2019-05-05T03:54:38.756Z,101398.25
2019-05-05T03:55:44.030Z,101395.67
2019-05-05T03:56:51.029Z,101400.97
2019-05-05T03:57:56.206Z,101399.56
2019-05-05T03:59:01.147Z,101399.95
2019-05-05T04:00:06.906Z,101399.77
2019-05-05T04:01:35.560Z,101402.13
2019-05-05T04:02:50.953Z,101401.09
2019-05-05T04:03:58.644Z,101399.50
2019-05-05T04:05:25.057Z,101401.61
2019-05-05T04:06:39.023Z,101402.92
2019-05-05T04:07:44.728Z,101396.84
2019-05-05T04:08:50.220Z,101396.79
2019-05-05T04:09:55.383Z,101393.59
2019-05-05T04:11:00.403Z,101395.72
2019-05-05T04:12:05.135Z,101400.83
2019-05-05T04:13:10.075Z,101395.53
2019-05-05T04:14:18.427Z,101399.44
2019-05-05T04:15:24.496Z,101403.05
2019-05-05T04:16:35.174Z,101401.30
2019-05-05T04:17:54.570Z,101402.00
2019-05-05T04:19:03.548Z,101405.76
2019-05-05T04:20:28.744Z,101409.25
2019-05-05T04:21:36.477Z,101413.03
2019-05-05T04:22:40.775Z,101408.69
2019-05-05T04:23:45.758Z,101409.38
2019-05-05T04:24:50.744Z,101414.55
2019-05-05T04:25:56.013Z,101413.36
2019-05-05T04:27:00.964Z,101412.98
2019-05-05T04:28:06.054Z,101420.25
2019-05-05T04:29:11.026Z,101416.02
2019-05-05T04:30:16.317Z,101418.13
2019-05-05T04:31:21.698Z,101416.59
2019-05-05T04:32:26.646Z,101416.47
2019-05-05T04:33:31.348Z,101421.23
2019-05-05T04:34:36.060Z,101414.46
2019-05-05T04:35:41.090Z,101419.27
2019-05-05T04:36:45.524Z,101420.22
2019-05-05T04:37:50.550Z,101416.90
2019-05-05T04:38:55.537Z,101423.91
2019-05-05T04:40:01.025Z,101421.36
2019-05-05T04:41:06.004Z,101423.59
2019-05-05T04:42:11.279Z,101421.33
2019-05-05T04:43:15.996Z,101424.89
2019-05-05T04:44:21.270Z,101426.02
2019-05-05T04:45:26.581Z,101428.26
2019-05-05T04:46:33.708Z,101433.86
2019-05-05T04:47:40.401Z,101439.05
2019-05-05T04:48:52.136Z,101433.54
2019-05-05T04:50:14.518Z,101436.33
2019-05-05T04:51:24.506Z,101436.75
2019-05-05T04:52:29.460Z,101435.94
2019-05-05T04:53:41.186Z,101443.17
2019-05-05T04:54:48.705Z,101434.85
2019-05-05T04:55:53.743Z,101438.44
2019-05-05T04:56:58.987Z,101441.89
2019-05-05T04:58:04.612Z,101444.33
2019-05-05T04:59:10.541Z,101443.39
2019-05-05T05:00:15.972Z,101442.66
2019-05-05T05:01:20.420Z,101451.89
2019-05-05T05:02:43.630Z,101448.42
2019-05-05T05:04:03.187Z,101450.66
2019-05-05T05:05:14.567Z,101451.80
2019-05-05T05:06:34.178Z,101455.38
2019-05-05T05:07:39.436Z,101451.86
2019-05-05T05:08:44.531Z,101456.83
2019-05-05T05:09:49.874Z,101458.13
2019-05-05T05:10:55.127Z,101464.75
2019-05-05T05:12:00.295Z,101468.55
2019-05-05T05:13:05.015Z,101467.63
2019-05-05T05:14:10.047Z,101467.52
2019-05-05T05:15:15.326Z,101466.62
2019-05-05T05:16:24.231Z,101460.91
2019-05-05T05:17:37.146Z,101459.67
2019-05-05T05:18:44.436Z,101465.69
2019-05-05T05:19:48.916Z,101466.20
2019-05-05T05:20:54.853Z,101464.96
2019-05-05T05:22:02.191Z,101466.13
2019-05-05T05:23:06.465Z,101462.50
2019-05-05T05:24:11.721Z,101463.84
2019-05-05T05:25:16.170Z,101465.98
2019-05-05T05:26:21.368Z,101470.66
2019-05-05T05:27:26.905Z,101468.66
2019-05-05T05:28:34.077Z,101471.16
2019-05-05T05:29:38.714Z,101479.86
2019-05-05T05:30:43.987Z,101473.02
2019-05-05T05:31:49.229Z,101476.77
2019-05-05T05:32:54.491Z,101479.68
2019-05-05T05:33:59.463Z,101473.81
2019-05-05T05:35:04.183Z,101483.45
2019-05-05T05:36:09.466Z,101484.42
2019-05-05T05:37:13.904Z,101485.27
2019-05-05T05:38:18.594Z,101479.71
2019-05-05T05:39:44.022Z,101484.77
2019-05-05T05:40:57.692Z,101482.58
2019-05-05T05:42:04.426Z,101490.09
2019-05-05T05:43:13.914Z,101487.28
2019-05-05T05:44:40.612Z,101484.08
2019-05-05T05:46:04.540Z,101489.91
2019-05-05T05:47:46.682Z,101492.77
2019-05-05T05:49:15.471Z,101493.86
2019-05-05T05:50:31.165Z,101491.84
2019-05-05T05:51:35.884Z,101492.23
2019-05-05T05:52:40.567Z,101490.22
2019-05-05T05:53:45.672Z,101496.53
2019-05-05T05:54:50.993Z,101491.86
2019-05-05T05:55:55.503Z,101499.48
2019-05-05T05:57:00.834Z,101499.98
2019-05-05T05:58:05.796Z,101500.95
2019-05-05T05:59:11.044Z,101499.02
2019-05-05T06:00:16.003Z,101501.41
2019-05-05T06:01:20.952Z,101500.17
2019-05-05T06:02:26.519Z,101507.66
2019-05-05T06:03:31.485Z,101508.41
2019-05-05T06:04:36.823Z,101505.41
2019-05-05T06:05:43.565Z,101507.81
2019-05-05T06:06:48.268Z,101504.70
2019-05-05T06:07:54.412Z,101506.48
2019-05-05T06:08:59.580Z,101510.08
2019-05-05T06:10:04.631Z,101510.78
2019-05-05T06:11:09.615Z,101512.17
2019-05-05T06:12:14.887Z,101518.45
2019-05-05T06:13:19.985Z,101517.17
2019-05-05T06:14:24.957Z,101522.79
2019-05-05T06:15:30.217Z,101521.52
2019-05-05T06:16:35.541Z,101518.05
2019-05-05T06:17:41.058Z,101525.59
2019-05-05T06:18:46.097Z,101524.50
2019-05-05T06:19:53.362Z,101530.30
2019-05-05T06:20:58.712Z,101527.98
2019-05-05T06:22:03.639Z,101528.63
2019-05-05T06:23:08.390Z,101533.30
2019-05-05T06:24:13.784Z,101537.64
2019-05-05T06:25:18.732Z,101544.21
2019-05-05T06:26:24.141Z,101542.62
2019-05-05T06:27:29.428Z,101544.45
2019-05-05T06:28:34.364Z,101539.80
2019-05-05T06:29:39.703Z,101546.38
2019-05-05T06:30:44.984Z,101542.59
2019-05-05T06:31:50.250Z,101545.16
2019-05-05T06:32:55.049Z,101543.80
2019-05-05T06:34:00.001Z,101541.33
2019-05-05T06:35:04.724Z,101547.47
2019-05-05T06:36:09.425Z,101546.16
2019-05-05T06:37:15.030Z,101546.94
2019-05-05T06:38:19.924Z,101546.16
2019-05-05T06:39:24.924Z,101541.15
2019-05-05T06:41:00.287Z,101548.77
2019-05-05T06:42:20.988Z,101549.73
2019-05-05T06:43:41.019Z,101551.41
2019-05-05T06:44:49.713Z,101551.21
2019-05-05T06:45:56.687Z,101546.10
2019-05-05T06:47:13.523Z,101549.40
2019-05-05T06:48:18.596Z,101546.88
2019-05-05T06:49:23.857Z,101549.22
2019-05-05T06:50:29.089Z,101554.18
2019-05-05T06:51:34.056Z,101551.62
2019-05-05T06:52:44.151Z,101550.22
2019-05-05T06:53:46.684Z,101551.84
2019-05-05T06:54:51.715Z,101548.73
2019-05-05T06:55:57.189Z,101552.62
2019-05-05T06:57:04.486Z,101551.20
2019-05-05T06:58:09.252Z,101551.63
2019-05-05T06:59:14.239Z,101556.67
2019-05-05T07:00:19.213Z,101552.08
2019-05-05T07:01:24.742Z,101556.08
2019-05-05T07:02:29.569Z,101552.05
2019-05-05T07:03:34.655Z,101549.91
2019-05-05T07:04:39.628Z,101558.59
2019-05-05T07:05:44.389Z,101555.64
2019-05-05T07:06:54.131Z,101557.31
2019-05-05T07:07:55.864Z,101560.02
2019-05-05T07:09:00.854Z,101557.62
2019-05-05T07:10:05.946Z,101560.53
2019-05-05T07:11:10.729Z,101558.38
2019-05-05T07:12:15.712Z,101559.27
2019-05-05T07:13:20.837Z,101559.62
2019-05-05T07:14:25.800Z,101559.78
2019-05-05T07:15:30.476Z,101555.28
2019-05-05T07:16:35.247Z,101553.23
2019-05-05T07:17:40.223Z,101555.19
2019-05-05T07:18:45.492Z,101555.56
2019-05-05T07:19:50.456Z,101552.20
2019-05-05T07:20:55.777Z,101558.11
2019-05-05T07:22:01.120Z,101562.00
2019-05-05T07:23:06.372Z,101560.06
2019-05-05T07:24:11.622Z,101555.63
2019-05-05T07:25:16.360Z,101555.77
2019-05-05T07:26:23.586Z,101556.67
2019-05-05T07:27:28.391Z,101555.95
2019-05-05T07:28:34.186Z,101554.49
2019-05-05T07:29:40.188Z,101553.83
2019-05-05T07:30:44.880Z,101555.10
2019-05-05T07:31:50.237Z,101556.88
2019-05-05T07:32:55.474Z,101556.42
2019-05-05T07:34:00.570Z,101559.52
2019-05-05T07:35:34.486Z,101562.17
2019-05-05T07:36:45.319Z,101555.37
2019-05-05T07:37:50.302Z,101566.91
2019-05-05T07:39:06.820Z,101569.33
2019-05-05T07:40:15.529Z,101559.55
2019-05-05T07:41:20.531Z,101568.00
2019-05-05T07:42:25.253Z,101564.98
2019-05-05T07:43:30.515Z,101557.06
2019-05-05T07:44:35.366Z,101555.34
2019-05-05T07:45:40.342Z,101556.95
2019-05-05T07:46:45.327Z,101562.83
2019-05-05T07:47:50.845Z,101561.77
2019-05-05T07:48:55.946Z,101564.08
2019-05-05T07:50:01.231Z,101557.45
2019-05-05T07:51:05.702Z,101561.29
2019-05-05T07:52:11.201Z,101559.23
2019-05-05T07:53:17.988Z,101560.64
2019-05-05T07:54:23.694Z,101558.78
2019-05-05T07:55:28.769Z,101559.64
2019-05-05T07:56:34.481Z,101562.81
2019-05-05T07:57:39.646Z,101562.62
2019-05-05T07:58:44.678Z,101565.27
2019-05-05T07:59:49.684Z,101560.33
2019-05-05T08:00:54.856Z,101559.77
2019-05-05T08:02:00.246Z,101560.64
2019-05-05T08:03:04.981Z,101562.67
2019-05-05T08:04:10.261Z,101560.98
2019-05-05T08:05:15.360Z,101562.45
2019-05-05T08:06:20.697Z,101562.45
2019-05-05T08:07:25.982Z,101562.17
2019-05-05T08:08:33.375Z,101555.87
2019-05-05T08:09:38.171Z,101563.56
2019-05-05T08:10:43.870Z,101563.33
2019-05-05T08:11:49.071Z,101559.71
2019-05-05T08:12:54.234Z,101569.84
2019-05-05T08:13:59.267Z,101571.98
2019-05-05T08:15:04.445Z,101570.02
2019-05-05T08:16:18.771Z,101562.84
2019-05-05T08:17:39.112Z,101573.13
2019-05-05T08:19:20.681Z,101567.48
2019-05-05T08:20:29.118Z,101561.38
2019-05-05T08:21:34.654Z,101560.57
2019-05-05T08:22:39.224Z,101570.31
2019-05-05T08:24:14.805Z,101566.45
2019-05-05T08:25:40.212Z,101575.38
2019-05-05T08:27:04.543Z,101566.40
2019-05-05T08:28:28.309Z,101571.31
2019-05-05T08:29:43.822Z,101561.46
2019-05-05T08:30:56.556Z,101568.75
2019-05-05T08:32:06.469Z,101571.36
2019-05-05T08:33:11.206Z,101565.06
2019-05-05T08:34:16.226Z,101562.28
2019-05-05T08:35:21.238Z,101569.14
2019-05-05T08:36:26.256Z,101569.14
2019-05-05T08:37:30.946Z,101549.26
2019-05-05T08:38:35.812Z,101549.26
2019-05-05T08:39:40.881Z,101562.61
2019-05-05T08:40:46.472Z,101560.23
2019-05-05T08:41:51.277Z,101558.51
2019-05-05T08:42:55.875Z,101556.89
2019-05-05T08:44:00.579Z,101543.03
2019-05-05T08:45:05.258Z,101561.72
2019-05-05T08:46:10.548Z,101557.26
2019-05-05T08:47:15.892Z,101563.47
2019-05-05T08:48:20.678Z,101557.16
2019-05-05T08:49:25.426Z,101554.86
2019-05-05T08:50:30.430Z,101556.52
2019-05-05T08:51:35.211Z,101552.00
2019-05-05T08:52:40.248Z,101553.26
2019-05-05T08:53:48.344Z,101549.18
2019-05-05T08:54:54.162Z,101554.73
2019-05-05T08:55:59.162Z,101558.50
2019-05-05T08:57:04.235Z,101557.98
2019-05-05T08:58:09.305Z,101557.46
2019-05-05T08:59:14.510Z,101554.66
2019-05-05T09:00:19.359Z,101565.72
2019-05-05T09:01:24.092Z,101562.18
2019-05-05T09:02:29.110Z,101567.95
2019-05-05T09:03:33.852Z,101564.08
2019-05-05T09:04:39.035Z,101572.86
2019-05-05T09:05:44.479Z,101567.05
2019-05-05T09:06:49.273Z,101564.65
2019-05-05T09:07:54.860Z,101564.30
2019-05-05T09:08:59.896Z,101571.64
2019-05-05T09:10:04.534Z,101560.31
2019-05-05T09:11:09.353Z,101555.45
2019-05-05T09:12:14.462Z,101564.84
2019-05-05T09:13:19.190Z,101561.02
2019-05-05T09:14:24.223Z,101562.58
2019-05-05T09:15:29.019Z,101560.95
2019-05-05T09:16:34.069Z,101556.96
2019-05-05T09:17:39.060Z,101528.17
2019-05-05T09:19:17.948Z,101532.25
2019-05-05T09:20:24.195Z,101532.62
2019-05-05T09:21:29.061Z,101539.77
2019-05-05T09:22:34.827Z,101544.59
2019-05-05T09:23:40.331Z,101549.56
2019-05-05T09:25:09.655Z,101549.47
2019-05-05T09:26:30.288Z,101544.74
2019-05-05T09:27:38.985Z,101546.00
2019-05-05T09:29:05.640Z,101546.00
2019-05-05T09:30:11.288Z,101548.98
2019-05-05T09:31:16.367Z,101552.36
2019-05-05T09:32:21.720Z,101550.48
2019-05-05T09:33:26.499Z,101549.66
2019-05-05T09:34:31.478Z,101547.01
2019-05-05T09:35:36.291Z,101551.44
2019-05-05T09:36:40.979Z,101549.52
2019-05-05T09:37:45.767Z,101554.09
2019-05-05T09:38:50.656Z,101548.44
2019-05-05T09:39:55.639Z,101555.25
2019-05-05T09:41:00.329Z,101550.61
2019-05-05T09:42:05.589Z,101560.86
2019-05-05T09:43:10.683Z,101558.09
2019-05-05T09:44:18.004Z,101560.53
2019-05-05T09:45:24.347Z,101564.35
2019-05-05T09:46:29.147Z,101556.05
2019-05-05T09:47:34.463Z,101564.52
2019-05-05T09:48:39.725Z,101561.91
2019-05-05T09:49:44.787Z,101567.34
2019-05-05T09:50:49.424Z,101564.28
2019-05-05T09:51:54.595Z,101570.71
2019-05-05T09:53:00.822Z,101571.20
2019-05-05T09:54:14.152Z,101571.70
2019-05-05T09:55:13.860Z,101695.27
2019-05-05T09:56:19.270Z,101572.20
2019-05-05T09:57:24.368Z,101560.11
2019-05-05T09:58:29.066Z,101572.10
2019-05-05T09:59:34.796Z,101572.10
2019-05-05T10:00:41.328Z,101565.87
2019-05-05T10:01:46.411Z,101577.73
2019-05-05T10:02:51.111Z,101566.25
2019-05-05T10:04:08.162Z,101571.90
2019-05-05T10:05:14.477Z,101582.04
2019-05-05T10:06:19.345Z,101575.08
2019-05-05T10:07:24.351Z,101570.25
2019-05-05T10:08:29.705Z,101563.22
2019-05-05T10:09:34.770Z,101500.95
2019-05-05T10:10:40.052Z,101559.20
2019-05-05T10:11:45.094Z,101559.20
2019-05-05T10:12:52.356Z,101568.50
2019-05-05T10:13:56.645Z,101566.09
2019-05-05T10:15:01.756Z,101575.16
2019-05-05T10:16:07.029Z,101574.47
2019-05-05T10:17:14.069Z,101581.09
2019-05-05T10:18:18.732Z,101581.30
2019-05-05T10:19:24.389Z,101581.30
2019-05-05T10:20:29.227Z,101583.39
2019-05-05T10:21:34.063Z,101594.87
2019-05-05T10:22:38.617Z,101589.92
2019-05-05T10:23:45.175Z,101595.45
2019-05-05T10:24:57.239Z,101590.12
2019-05-05T10:26:07.133Z,101590.59
2019-05-05T10:27:12.422Z,101586.52
2019-05-05T10:28:17.552Z,101583.66
2019-05-05T10:29:22.549Z,101574.86
2019-05-05T10:30:27.560Z,101588.27
2019-05-05T10:31:34.497Z,101585.30
2019-05-05T10:32:39.354Z,101579.36
2019-05-05T10:33:49.293Z,101581.89
2019-05-05T10:35:04.587Z,101584.03
2019-05-05T10:36:08.954Z,101579.20
2019-05-05T10:37:14.316Z,101583.02
2019-05-05T10:38:18.781Z,101575.80
2019-05-05T10:39:33.504Z,101575.19
2019-05-05T10:40:38.519Z,101573.99
2019-05-05T10:41:44.143Z,101572.44
2019-05-05T10:42:53.676Z,101576.41
2019-05-05T10:43:58.833Z,101581.59
2019-05-05T10:45:04.396Z,101583.23
2019-05-05T10:46:09.537Z,101582.98
2019-05-05T10:47:14.825Z,101592.10
2019-05-05T10:48:20.176Z,101587.19
2019-05-05T10:49:25.165Z,101587.08
2019-05-05T10:50:30.672Z,101590.17
2019-05-05T10:51:35.938Z,101597.84
2019-05-05T10:52:41.306Z,101589.94
2019-05-05T10:53:46.002Z,101583.91
2019-05-05T10:54:51.351Z,101588.78
2019-05-05T10:55:56.149Z,101587.58
2019-05-05T10:57:01.456Z,101583.78
2019-05-05T10:58:06.543Z,101589.77
2019-05-05T10:59:11.222Z,101582.91
2019-05-05T11:00:18.860Z,101573.95
2019-05-05T11:01:23.698Z,101590.59
2019-05-05T11:02:28.471Z,101584.47
2019-05-05T11:03:34.288Z,101589.66
2019-05-05T11:04:39.318Z,101570.56
2019-05-05T11:05:45.058Z,101572.37
2019-05-05T11:06:50.416Z,101577.73
2019-05-05T11:07:57.742Z,101571.44
2019-05-05T11:09:05.915Z,101565.05
2019-05-05T11:10:10.968Z,101568.56
2019-05-05T11:11:17.646Z,101574.15
2019-05-05T11:12:24.682Z,101569.94
2019-05-05T11:13:29.615Z,101580.83
2019-05-05T11:14:34.608Z,101571.75
2019-05-05T11:15:39.793Z,101568.03
2019-05-05T11:16:44.580Z,101577.36
2019-05-05T11:17:50.047Z,101570.57
2019-05-05T11:18:54.908Z,101575.41
2019-05-05T11:20:00.235Z,101578.91
2019-05-05T11:21:05.224Z,101575.34
2019-05-05T11:22:10.243Z,101573.08
2019-05-05T11:23:15.424Z,101581.02
2019-05-05T11:24:20.232Z,101576.92
2019-05-05T11:25:25.687Z,101577.10
2019-05-05T11:26:30.711Z,101585.88
2019-05-05T11:27:35.740Z,101573.64
2019-05-05T11:28:40.453Z,101589.66
2019-05-05T11:30:03.993Z,101576.80
2019-05-05T11:31:08.966Z,101573.01
2019-05-05T11:32:18.815Z,101567.45
2019-05-05T11:33:43.596Z,101561.80
2019-05-05T11:34:48.052Z,101565.10
2019-05-05T11:35:59.389Z,101560.66
2019-05-05T11:37:07.018Z,101560.72
2019-05-05T11:38:14.081Z,101559.41
2019-05-05T11:39:18.592Z,101562.34
2019-05-05T11:40:32.469Z,101562.55
2019-05-05T11:41:37.533Z,101566.80
2019-05-05T11:42:42.592Z,101560.91
2019-05-05T11:43:47.576Z,101554.84
2019-05-05T11:44:52.319Z,101557.83
2019-05-05T11:45:57.330Z,101565.75
2019-05-05T11:47:03.677Z,101564.10
2019-05-05T11:48:08.576Z,101562.83
2019-05-05T11:49:14.124Z,101561.08
2019-05-05T11:50:18.790Z,101557.97
2019-05-05T11:51:25.017Z,101561.30
2019-05-05T11:52:29.791Z,101568.35
2019-05-05T11:53:34.791Z,101561.78
2019-05-05T11:54:39.913Z,101563.54
2019-05-05T11:55:44.656Z,101556.97
2019-05-05T11:56:49.729Z,101561.69
2019-05-05T11:57:57.572Z,101554.52
2019-05-05T11:59:03.740Z,101559.98
2019-05-05T12:00:08.536Z,101562.45
2019-05-05T12:01:13.848Z,101564.60
2019-05-05T12:02:18.788Z,101565.58
2019-05-05T12:03:23.543Z,101563.16
2019-05-05T12:04:28.248Z,101565.09
2019-05-05T12:05:33.659Z,101570.97
2019-05-05T12:06:39.144Z,101565.13
2019-05-05T12:07:44.471Z,101565.13
2019-05-05T12:08:49.145Z,101562.73
2019-05-05T12:09:56.223Z,101560.29
2019-05-05T12:11:04.587Z,101551.75
2019-05-05T12:12:09.719Z,101557.94
2019-05-05T12:13:14.920Z,101569.49
2019-05-05T12:14:25.031Z,101569.49
2019-05-05T12:15:28.834Z,101570.68
2019-05-05T12:16:34.695Z,101572.97
2019-05-05T12:17:39.829Z,101576.23
2019-05-05T12:18:45.040Z,101580.11
2019-05-05T12:19:50.087Z,101581.34
2019-05-05T12:20:55.517Z,101576.26
2019-05-05T12:22:00.349Z,101574.56
2019-05-05T12:23:05.310Z,101579.89
2019-05-05T12:24:16.223Z,101581.83
2019-05-05T12:25:46.081Z,101570.09
2019-05-05T12:27:21.861Z,101572.67
2019-05-05T12:28:54.616Z,101572.27
2019-05-05T12:30:06.687Z,101573.45
2019-05-05T12:31:15.390Z,101572.89
2019-05-05T12:32:20.152Z,101574.17
2019-05-05T12:33:25.244Z,101573.08
2019-05-05T12:34:30.284Z,101569.78
2019-05-05T12:35:35.292Z,101570.98
2019-05-05T12:36:40.346Z,101570.33
2019-05-05T12:37:45.344Z,101572.19
2019-05-05T12:38:50.099Z,101565.46
2019-05-05T12:39:54.689Z,101566.84
2019-05-05T12:40:59.752Z,101572.61
2019-05-05T12:42:04.976Z,101574.93
2019-05-05T12:43:10.483Z,101575.73
2019-05-05T12:44:26.669Z,101578.44
2019-05-05T12:45:34.568Z,101577.26
2019-05-05T12:46:57.022Z,101585.48
2019-05-05T12:48:15.948Z,101590.67
2019-05-05T12:49:22.663Z,101603.02
2019-05-05T12:50:27.411Z,101613.14